Tarrant West's Hourly Summary for Thursday, March 16, 2017
Hour Temp
(f)
RH
(%)
Solar Rad.
(MJ/m2)
Rainfall
(in)
Wind
(mph)
3/16/2017 12:00 AM 52 73 0 0 7.27
3/16/2017 1:00 AM 53 74 0 0 8.93
3/16/2017 2:00 AM 53 75 0 0 10.93
3/16/2017 3:00 AM 54 81 0 0 12.72
3/16/2017 4:00 AM 53 88 0 0 12.45
3/16/2017 5:00 AM 54 93 0 0 12.78
3/16/2017 6:00 AM 55 94 0 0 11.75
3/16/2017 7:00 AM 55 94 0 0 12.78
3/16/2017 8:00 AM 56 95 0.17 0 12.5
3/16/2017 9:00 AM 58 90 0.38 0 14.25
3/16/2017 10:00 AM 60 84 0.49 0 14.97
3/16/2017 11:00 AM 61 81 0.67 0 14.53
3/16/2017 12:00 PM 63 78 1.02 0 16.1
3/16/2017 1:00 PM 66 72 1.32 0 16.73
3/16/2017 2:00 PM 66 72 1.3 0 16.48
3/16/2017 3:00 PM 68 68 1.19 0 17.1
3/16/2017 4:00 PM 69 67 1.26 0 18.93
3/16/2017 5:00 PM 70 65 0.93 0 19.1
3/16/2017 6:00 PM 72 63 0.61 0 17.27
3/16/2017 7:00 PM 70 66 0.13 0 14.65
3/16/2017 8:00 PM 67 75 0 0 11.72
3/16/2017 9:00 PM 65 80 0 0 9.32
3/16/2017 10:00 PM 66 79 0 0 12.22
3/16/2017 11:00 PM 65 79 0 0 14.7
Data Summary 61 78 9.47 0.00 13.76